Time;durP1;ratioP1;P1;durP2;ratioP2;P2;SDS_P1;SDS_P2;PMS_P1;PMS_P2;Temp;Humidity;BMP_temperature;BMP_pressure;BME280_temperature;BME280_humidity;BME280_pressure;Samples;Min_cycle;Max_cycle;Signal;HPM_P1;HPM_P2
2022/01/21 00:00:29;;;;;;;;;;;16.60;99.90;;;;;;5037461;28;1967;-45
2022/01/21 00:02:55;;;;;;;;;;;16.60;99.90;;;;;;5041033;28;946;-45
2022/01/21 00:05:23;;;;;;;;;;;16.50;99.90;;;;;;5036914;28;1031;-45
2022/01/21 00:07:49;;;;;;;;;;;16.50;99.90;;;;;;5034982;28;759;-45
2022/01/21 00:10:16;;;;;;;;;;;16.50;99.90;;;;;;5033555;28;868;-45
2022/01/21 00:12:42;;;;;;;;;;;16.50;99.90;;;;;;5036741;28;721;-45
2022/01/21 00:15:08;;;;;;;;;;;16.40;99.90;;;;;;5036884;28;1002;-54
2022/01/21 00:17:35;;;;;;;;;;;16.40;99.90;;;;;;5037069;28;818;-53
2022/01/21 00:30:58;;;;;;;;;;;16.20;99.90;;;;;;5037095;28;749;-54
2022/01/21 00:33:24;;;;;;;;;;;16.20;99.90;;;;;;5036260;28;1324;-54
2022/01/21 00:35:50;;;;;;;;;;;16.10;99.90;;;;;;5037082;28;866;-44
2022/01/21 00:38:17;;;;;;;;;;;16.10;99.90;;;;;;5036467;28;936;-45
2022/01/21 00:40:43;;;;;;;;;;;16.00;99.90;;;;;;5035278;28;1913;-44
2022/01/21 00:43:18;;;;;;;;;;;16.00;99.90;;;;;;5054987;28;759;-44
2022/01/21 00:45:44;;;;;;;;;;;16.00;99.90;;;;;;5049836;28;1163;-45
2022/01/21 00:48:10;;;;;;;;;;;16.00;99.90;;;;;;5054702;28;877;-45
2022/01/21 00:50:36;;;;;;;;;;;16.00;99.90;;;;;;5055165;28;786;-45
2022/01/21 00:53:02;;;;;;;;;;;15.90;99.90;;;;;;5055060;28;896;-45
2022/01/21 00:55:28;;;;;;;;;;;15.90;99.90;;;;;;5054571;28;937;-44
2022/01/21 00:57:54;;;;;;;;;;;15.90;99.90;;;;;;5054908;28;841;-44
2022/01/21 01:00:20;;;;;;;;;;;15.80;99.90;;;;;;5054721;28;1906;-44
2022/01/21 01:02:46;;;;;;;;;;;15.80;99.90;;;;;;5054915;28;778;-44
2022/01/21 01:05:13;;;;;;;;;;;15.80;99.90;;;;;;5037671;28;777;-45
2022/01/21 01:07:39;;;;;;;;;;;15.70;99.90;;;;;;5036522;28;963;-45
2022/01/21 01:10:06;;;;;;;;;;;15.70;99.90;;;;;;5033366;28;1362;-44
2022/01/21 01:20:27;;;;;;;;;;;15.60;99.90;;;;;;5036438;28;1968;-44
2022/01/21 01:22:59;;;;;;;;;;;15.60;99.90;;;;;;5026463;28;1247;-44
2022/01/21 01:28:09;;;;;;;;;;;15.60;99.90;;;;;;5054579;28;970;-44
2022/01/21 01:30:36;;;;;;;;;;;15.50;99.90;;;;;;5038085;28;857;-44
2022/01/21 01:33:03;;;;;;;;;;;15.50;99.90;;;;;;5036105;28;1284;-44
2022/01/21 01:35:31;;;;;;;;;;;15.40;99.90;;;;;;5036016;28;865;-44
2022/01/21 01:40:35;;;;;;;;;;;15.40;99.90;;;;;;5030065;28;1967;-44
2022/01/21 01:51:07;;;;;;;;;;;15.30;99.90;;;;;;5036199;28;1240;-45
2022/01/21 01:53:35;;;;;;;;;;;15.30;99.90;;;;;;5036078;28;809;-44
2022/01/21 01:56:02;;;;;;;;;;;15.20;99.90;;;;;;5035673;28;1170;-44
2022/01/21 01:58:28;;;;;;;;;;;15.20;99.90;;;;;;5036128;28;849;-44
2022/01/21 02:00:56;;;;;;;;;;;15.20;99.90;;;;;;5036285;28;1967;-44
2022/01/21 02:03:23;;;;;;;;;;;15.20;99.90;;;;;;5035917;28;775;-44
2022/01/21 02:05:49;;;;;;;;;;;15.10;99.90;;;;;;5036570;28;1289;-44
2022/01/21 02:08:15;;;;;;;;;;;15.10;99.90;;;;;;5040399;28;994;-44
2022/01/21 02:10:41;;;;;;;;;;;15.10;99.90;;;;;;5038357;28;1059;-44
2022/01/21 02:13:26;;;;;;;;;;;15.10;99.90;;;;;;5038921;28;851;-44
2022/01/21 02:16:00;;;;;;;;;;;15.00;99.90;;;;;;5037648;28;738;-44
2022/01/21 02:24:09;;;;;;;;;;;15.00;99.90;;;;;;5057787;28;738;-44
2022/01/21 02:26:35;;;;;;;;;;;14.90;99.90;;;;;;5057115;28;870;-44
2022/01/21 02:29:03;;;;;;;;;;;14.90;99.90;;;;;;5057607;28;995;-45
2022/01/21 02:31:29;;;;;;;;;;;14.90;99.90;;;;;;5057502;28;844;-44
2022/01/21 02:33:55;;;;;;;;;;;14.90;99.90;;;;;;5050125;28;1283;-44
2022/01/21 02:36:21;;;;;;;;;;;14.90;99.90;;;;;;5039124;28;895;-44
2022/01/21 02:38:47;;;;;;;;;;;14.80;99.90;;;;;;5038971;28;935;-44
2022/01/21 02:41:13;;;;;;;;;;;14.80;99.90;;;;;;5057164;28;1914;-44
2022/01/21 02:43:39;;;;;;;;;;;14.80;99.90;;;;;;5057277;28;859;-44
2022/01/21 02:46:08;;;;;;;;;;;14.70;99.90;;;;;;5057436;28;830;-44
2022/01/21 02:48:37;;;;;;;;;;;14.70;99.90;;;;;;5056977;28;1013;-44
2022/01/21 02:51:07;;;;;;;;;;;14.70;99.90;;;;;;5035423;28;858;-45
2022/01/21 02:56:16;;;;;;;;;;;14.70;99.90;;;;;;5038918;28;1441;-44
2022/01/21 02:58:43;;;;;;;;;;;14.70;99.90;;;;;;5038627;28;955;-44
2022/01/21 03:01:09;;;;;;;;;;;14.60;99.90;;;;;;5038859;28;1973;-44
2022/01/21 03:03:35;;;;;;;;;;;14.60;99.90;;;;;;5038690;28;838;-44
2022/01/21 03:06:01;;;;;;;;;;;14.60;99.90;;;;;;5038902;28;909;-44
2022/01/21 03:08:28;;;;;;;;;;;14.60;99.90;;;;;;5019858;28;1358;-44
2022/01/21 03:10:54;;;;;;;;;;;14.60;99.90;;;;;;5036209;28;1460;-44
2022/01/21 03:13:23;;;;;;;;;;;14.50;99.90;;;;;;5036780;28;1359;-44
2022/01/21 03:15:50;;;;;;;;;;;14.50;99.90;;;;;;5037622;28;745;-44
2022/01/21 03:18:16;;;;;;;;;;;14.50;99.90;;;;;;5038480;28;1072;-44
2022/01/21 03:20:43;;;;;;;;;;;14.50;99.90;;;;;;5038041;28;1910;-44
2022/01/21 03:23:15;;;;;;;;;;;14.50;99.90;;;;;;5038497;28;871;-44
2022/01/21 03:25:42;;;;;;;;;;;14.40;99.90;;;;;;5020711;28;941;-45
2022/01/21 03:28:08;;;;;;;;;;;14.40;99.90;;;;;;5038522;28;1022;-44
2022/01/21 03:30:34;;;;;;;;;;;14.40;99.90;;;;;;5039257;28;1286;-44
2022/01/21 03:33:01;;;;;;;;;;;14.40;99.90;;;;;;5055910;28;1216;-44
2022/01/21 03:35:27;;;;;;;;;;;14.40;99.90;;;;;;5038000;28;646;-44
2022/01/21 03:37:53;;;;;;;;;;;14.30;99.90;;;;;;5037882;28;852;-44
2022/01/21 03:40:19;;;;;;;;;;;14.30;99.90;;;;;;5036233;28;1974;-44
2022/01/21 03:42:44;;;;;;;;;;;14.30;99.90;;;;;;5037997;28;912;-44
2022/01/21 03:45:12;;;;;;;;;;;14.30;99.90;;;;;;5037789;28;813;-44
2022/01/21 03:47:38;;;;;;;;;;;14.20;99.90;;;;;;5037437;28;931;-44
2022/01/21 03:50:24;;;;;;;;;;;14.20;99.90;;;;;;5037236;28;879;-45
2022/01/21 03:52:51;;;;;;;;;;;14.20;99.90;;;;;;5037589;28;825;-44
2022/01/21 03:55:17;;;;;;;;;;;14.20;99.90;;;;;;5037478;28;861;-44
2022/01/21 03:57:43;;;;;;;;;;;14.20;99.90;;;;;;5037478;28;773;-44
2022/01/21 04:00:10;;;;;;;;;;;14.10;99.90;;;;;;5037420;28;1984;-44
2022/01/21 04:02:36;;;;;;;;;;;14.10;99.90;;;;;;5036479;28;1007;-44
2022/01/21 04:05:02;;;;;;;;;;;14.10;99.90;;;;;;5037205;28;885;-44
2022/01/21 04:07:28;;;;;;;;;;;14.10;99.90;;;;;;5044271;28;989;-44
2022/01/21 04:09:54;;;;;;;;;;;14.10;99.90;;;;;;5035850;28;878;-44
2022/01/21 04:12:20;;;;;;;;;;;14.10;99.90;;;;;;5036901;28;908;-44
2022/01/21 04:14:46;;;;;;;;;;;14.00;99.90;;;;;;5036451;28;1469;-44
2022/01/21 04:17:12;;;;;;;;;;;14.00;99.90;;;;;;5036921;28;872;-44
2022/01/21 04:19:39;;;;;;;;;;;14.00;99.90;;;;;;5036895;28;861;-44
2022/01/21 04:22:05;;;;;;;;;;;13.90;99.90;;;;;;5037317;28;842;-44
2022/01/21 04:24:31;;;;;;;;;;;14.00;99.90;;;;;;5037395;28;1002;-44
2022/01/21 04:26:57;;;;;;;;;;;14.00;99.90;;;;;;5036920;28;862;-44
2022/01/21 04:29:23;;;;;;;;;;;13.90;99.90;;;;;;5042247;28;1060;-53
2022/01/21 04:31:49;;;;;;;;;;;13.90;99.90;;;;;;5036598;28;890;-53
2022/01/21 04:34:15;;;;;;;;;;;13.90;99.90;;;;;;5036688;28;1041;-53
2022/01/21 04:36:41;;;;;;;;;;;13.90;99.90;;;;;;5036380;28;798;-53
2022/01/21 04:39:14;;;;;;;;;;;13.80;99.90;;;;;;5040920;28;1017;-53
2022/01/21 04:49:41;;;;;;;;;;;13.80;99.90;;;;;;5036918;28;790;-53
2022/01/21 04:52:07;;;;;;;;;;;13.80;99.90;;;;;;5036751;28;828;-53
2022/01/21 04:54:34;;;;;;;;;;;13.70;99.90;;;;;;5036385;28;1298;-53
2022/01/21 04:57:01;;;;;;;;;;;13.70;99.90;;;;;;5036202;28;846;-53
2022/01/21 04:59:27;;;;;;;;;;;13.70;99.90;;;;;;5036624;28;759;-53
2022/01/21 05:01:53;;;;;;;;;;;13.70;99.90;;;;;;5036125;28;1960;-53
2022/01/21 05:04:20;;;;;;;;;;;13.70;99.90;;;;;;5036170;28;905;-53
2022/01/21 05:06:47;;;;;;;;;;;13.60;99.90;;;;;;5036444;28;862;-53
2022/01/21 05:09:16;;;;;;;;;;;13.70;99.90;;;;;;5033542;28;1342;-53
2022/01/21 05:11:46;;;;;;;;;;;13.70;99.90;;;;;;5034865;28;901;-53
2022/01/21 05:14:22;;;;;;;;;;;13.60;99.90;;;;;;5034956;28;713;-53
2022/01/21 05:16:50;;;;;;;;;;;13.60;99.90;;;;;;5033325;28;827;-53
2022/01/21 05:19:18;;;;;;;;;;;13.60;99.90;;;;;;5035724;28;1390;-53
2022/01/21 05:21:48;;;;;;;;;;;13.60;99.90;;;;;;5035429;28;1973;-53
2022/01/21 05:24:14;;;;;;;;;;;13.60;99.90;;;;;;5034613;28;823;-53
2022/01/21 05:26:42;;;;;;;;;;;13.50;99.90;;;;;;5043197;28;1014;-53
2022/01/21 05:29:09;;;;;;;;;;;13.50;99.90;;;;;;5054965;28;948;-53
2022/01/21 05:31:35;;;;;;;;;;;13.50;99.90;;;;;;5054739;28;894;-53
2022/01/21 05:34:02;;;;;;;;;;;13.50;99.90;;;;;;5046610;28;1235;-53
2022/01/21 05:36:30;;;;;;;;;;;13.50;99.90;;;;;;5036329;28;794;-53
2022/01/21 05:38:57;;;;;;;;;;;13.50;99.90;;;;;;5034861;28;1185;-53
2022/01/21 05:41:24;;;;;;;;;;;13.50;99.90;;;;;;5036510;28;1972;-53
2022/01/21 05:43:57;;;;;;;;;;;13.50;99.90;;;;;;5037007;28;854;-52
2022/01/21 05:46:34;;;;;;;;;;;13.50;99.90;;;;;;5022715;28;853;-53
2022/01/21 05:49:00;;;;;;;;;;;13.50;99.90;;;;;;5039958;28;759;-53
2022/01/21 05:51:26;;;;;;;;;;;13.40;99.90;;;;;;5040227;28;826;-52
2022/01/21 05:53:52;;;;;;;;;;;13.40;99.90;;;;;;5040239;28;809;-53
2022/01/21 05:56:23;;;;;;;;;;;13.40;99.90;;;;;;5039794;28;800;-53
2022/01/21 05:58:49;;;;;;;;;;;13.40;99.90;;;;;;5039450;28;886;-53
2022/01/21 06:01:15;;;;;;;;;;;13.40;99.90;;;;;;5039687;28;1902;-53
2022/01/21 06:03:41;;;;;;;;;;;13.40;99.90;;;;;;5039965;28;805;-45
2022/01/21 06:06:09;;;;;;;;;;;13.40;99.90;;;;;;5041673;28;975;-44
2022/01/21 06:08:36;;;;;;;;;;;13.40;99.90;;;;;;5047038;28;915;-45
2022/01/21 06:11:02;;;;;;;;;;;13.40;99.90;;;;;;5038126;28;781;-44
2022/01/21 06:13:28;;;;;;;;;;;13.40;99.90;;;;;;5038695;28;1477;-44
2022/01/21 06:15:56;;;;;;;;;;;13.40;99.90;;;;;;5036208;28;922;-45
2022/01/21 06:18:22;;;;;;;;;;;13.40;99.90;;;;;;5039492;28;824;-44
2022/01/21 06:20:48;;;;;;;;;;;13.40;99.90;;;;;;5039262;28;1968;-45
2022/01/21 06:23:14;;;;;;;;;;;13.40;99.90;;;;;;5039478;28;868;-44
2022/01/21 06:25:40;;;;;;;;;;;13.50;99.90;;;;;;5038944;28;821;-44
2022/01/21 06:28:06;;;;;;;;;;;13.50;99.90;;;;;;5052930;28;1055;-44
2022/01/21 06:30:32;;;;;;;;;;;13.60;99.90;;;;;;5057603;28;862;-44
2022/01/21 06:32:58;;;;;;;;;;;13.60;99.90;;;;;;5057428;28;1050;-44
2022/01/21 06:35:24;;;;;;;;;;;13.70;99.90;;;;;;5038926;28;738;-44
2022/01/21 06:37:50;;;;;;;;;;;13.70;99.90;;;;;;5053324;28;820;-44
2022/01/21 06:40:19;;;;;;;;;;;13.80;99.90;;;;;;5038991;28;1906;-44
2022/01/21 06:42:49;;;;;;;;;;;13.80;99.90;;;;;;5032684;28;893;-44
2022/01/21 06:45:15;;;;;;;;;;;13.90;99.90;;;;;;5039164;28;920;-44
2022/01/21 06:47:41;;;;;;;;;;;14.00;99.90;;;;;;5038703;28;916;-44
2022/01/21 06:50:07;;;;;;;;;;;14.00;99.90;;;;;;5057106;28;770;-44
2022/01/21 06:52:34;;;;;;;;;;;14.10;99.90;;;;;;5039303;28;885;-44
2022/01/21 06:55:00;;;;;;;;;;;14.20;99.90;;;;;;5038765;28;1086;-44
2022/01/21 06:57:27;;;;;;;;;;;14.20;99.90;;;;;;5038594;28;982;-44
2022/01/21 06:59:53;;;;;;;;;;;14.30;99.90;;;;;;5049589;28;1310;-44
2022/01/21 07:02:19;;;;;;;;;;;14.40;99.90;;;;;;5057097;28;1960;-44
2022/01/21 07:04:49;;;;;;;;;;;14.40;99.90;;;;;;5042986;28;1228;-44
2022/01/21 07:07:15;;;;;;;;;;;14.50;99.90;;;;;;5020990;28;873;-44
2022/01/21 07:09:41;;;;;;;;;;;14.50;99.90;;;;;;5036066;28;1414;-44
2022/01/21 07:12:07;;;;;;;;;;;14.50;99.90;;;;;;5036829;28;782;-44
2022/01/21 07:14:33;;;;;;;;;;;14.50;99.90;;;;;;5042124;28;911;-44
2022/01/21 07:16:59;;;;;;;;;;;14.60;99.90;;;;;;5037442;28;775;-44
2022/01/21 07:19:25;;;;;;;;;;;14.60;99.90;;;;;;5037909;28;889;-44
2022/01/21 07:21:51;;;;;;;;;;;14.60;99.90;;;;;;5038314;28;1906;-44
2022/01/21 07:24:17;;;;;;;;;;;14.70;99.90;;;;;;5042027;28;1267;-44
2022/01/21 07:26:43;;;;;;;;;;;14.70;99.90;;;;;;5055993;28;1015;-44
2022/01/21 07:29:09;;;;;;;;;;;14.70;99.90;;;;;;5056073;28;865;-44
2022/01/21 07:31:35;;;;;;;;;;;14.80;99.90;;;;;;5055989;28;882;-44
2022/01/21 07:34:04;;;;;;;;;;;14.80;99.90;;;;;;5048058;28;1014;-44
2022/01/21 07:36:31;;;;;;;;;;;14.90;99.90;;;;;;5038455;28;773;-44
2022/01/21 07:38:57;;;;;;;;;;;14.90;99.90;;;;;;5037552;28;815;-44
2022/01/21 07:41:23;;;;;;;;;;;14.90;99.90;;;;;;5035808;28;1906;-44
2022/01/21 07:43:50;;;;;;;;;;;14.90;99.90;;;;;;5038234;28;1437;-44
2022/01/21 07:46:16;;;;;;;;;;;15.00;99.90;;;;;;5037706;28;951;-44
2022/01/21 07:48:42;;;;;;;;;;;15.00;99.90;;;;;;5037667;28;900;-44
2022/01/21 07:51:08;;;;;;;;;;;15.00;99.90;;;;;;5037839;28;806;-45
2022/01/21 07:53:34;;;;;;;;;;;15.00;99.90;;;;;;5037732;28;843;-44
2022/01/21 07:56:01;;;;;;;;;;;15.00;99.90;;;;;;5038014;28;784;-44
2022/01/21 07:58:27;;;;;;;;;;;15.10;99.90;;;;;;5037525;28;877;-44
2022/01/21 08:00:53;;;;;;;;;;;15.10;99.90;;;;;;5037043;28;1902;-44
2022/01/21 08:03:20;;;;;;;;;;;15.10;99.90;;;;;;5036758;28;889;-44
2022/01/21 08:05:47;;;;;;;;;;;15.10;99.90;;;;;;5033366;28;1019;-44
2022/01/21 08:08:12;;;;;;;;;;;15.10;99.90;;;;;;5033343;28;884;-44
2022/01/21 08:10:38;;;;;;;;;;;15.10;99.90;;;;;;5036774;28;857;-44
2022/01/21 08:13:04;;;;;;;;;;;15.10;99.90;;;;;;5037127;28;872;-44
2022/01/21 08:15:31;;;;;;;;;;;15.10;99.90;;;;;;5039230;28;1405;-44
2022/01/21 08:17:57;;;;;;;;;;;15.20;99.90;;;;;;5036486;28;881;-44
2022/01/21 08:20:23;;;;;;;;;;;15.20;99.90;;;;;;5037001;28;1899;-44
2022/01/21 08:22:49;;;;;;;;;;;15.20;99.90;;;;;;5037416;28;790;-44
2022/01/21 08:25:15;;;;;;;;;;;15.20;99.90;;;;;;5037476;28;826;-44
2022/01/21 08:27:41;;;;;;;;;;;15.20;99.90;;;;;;5019384;28;1148;-44
2022/01/21 08:30:07;;;;;;;;;;;15.30;99.90;;;;;;5037092;28;825;-44
2022/01/21 08:32:34;;;;;;;;;;;15.30;99.90;;;;;;5036999;28;938;-44
2022/01/21 08:35:00;;;;;;;;;;;15.30;99.90;;;;;;5036712;28;1252;-44
2022/01/21 08:37:26;;;;;;;;;;;15.30;99.90;;;;;;5037198;28;805;-44
2022/01/21 08:39:52;;;;;;;;;;;15.30;99.90;;;;;;5037101;28;830;-44
2022/01/21 08:42:18;;;;;;;;;;;15.30;99.90;;;;;;5032962;28;1975;-44
2022/01/21 08:44:44;;;;;;;;;;;15.30;99.90;;;;;;5036876;28;781;-43
2022/01/21 08:47:10;;;;;;;;;;;15.40;99.90;;;;;;5037314;28;1050;-43
2022/01/21 08:49:36;;;;;;;;;;;15.40;99.90;;;;;;5036660;28;1132;-52
2022/01/21 08:52:02;;;;;;;;;;;15.40;99.90;;;;;;5019308;28;876;-53
2022/01/21 08:54:29;;;;;;;;;;;15.40;99.90;;;;;;5035803;28;856;-52
2022/01/21 08:56:55;;;;;;;;;;;15.50;99.90;;;;;;5036592;28;852;-52
2022/01/21 08:59:21;;;;;;;;;;;15.50;99.90;;;;;;5018305;28;1318;-53
2022/01/21 09:01:51;;;;;;;;;;;15.50;99.90;;;;;;5036268;28;1910;-52
2022/01/21 09:04:18;;;;;;;;;;;15.50;99.90;;;;;;5036495;28;850;-53
2022/01/21 09:06:46;;;;;;;;;;;15.60;99.90;;;;;;5036466;28;859;-52
2022/01/21 09:09:12;;;;;;;;;;;15.60;99.90;;;;;;5035715;28;1578;-53
2022/01/21 09:11:38;;;;;;;;;;;15.70;99.90;;;;;;5018497;28;1008;-52
2022/01/21 09:14:05;;;;;;;;;;;15.70;99.90;;;;;;5037568;28;943;-53
2022/01/21 09:16:31;;;;;;;;;;;15.70;99.90;;;;;;5040124;28;811;-52
2022/01/21 09:19:02;;;;;;;;;;;15.80;99.90;;;;;;5021010;28;1290;-53
2022/01/21 09:21:38;;;;;;;;;;;15.80;99.90;;;;;;5040392;28;1906;-44
2022/01/21 09:24:08;;;;;;;;;;;15.80;99.90;;;;;;5035649;28;831;-53
2022/01/21 09:26:34;;;;;;;;;;;15.80;99.90;;;;;;5023523;28;858;-44
2022/01/21 09:29:03;;;;;;;;;;;15.80;99.90;;;;;;5047677;28;1167;-53
2022/01/21 09:31:29;;;;;;;;;;;15.90;99.90;;;;;;5035016;28;926;-44
2022/01/21 09:33:55;;;;;;;;;;;15.90;99.90;;;;;;5045779;28;1058;-53
2022/01/21 09:36:22;;;;;;;;;;;15.90;99.90;;;;;;5058671;28;904;-46
2022/01/21 09:38:49;;;;;;;;;;;15.90;99.90;;;;;;5035844;28;1419;-56
2022/01/21 09:41:17;;;;;;;;;;;16.00;99.90;;;;;;5038514;28;1971;-45
2022/01/21 09:43:46;;;;;;;;;;;16.00;99.90;;;;;;5039716;28;1100;-44
2022/01/21 09:46:13;;;;;;;;;;;16.00;99.90;;;;;;5040050;28;842;-44
2022/01/21 09:49:07;;;;;;;;;;;16.00;99.90;;;;;;5022744;28;1951;-45
2022/01/21 09:51:34;;;;;;;;;;;16.00;99.90;;;;;;5036847;28;785;-45
2022/01/21 09:54:06;;;;;;;;;;;16.00;99.90;;;;;;5038254;28;742;-44
2022/01/21 09:56:34;;;;;;;;;;;16.00;99.90;;;;;;5038855;28;850;-44
2022/01/21 09:59:01;;;;;;;;;;;15.80;99.90;;;;;;5039404;28;1002;-45
2022/01/21 10:01:27;;;;;;;;;;;15.40;99.90;;;;;;5043051;28;1902;-45
2022/01/21 10:03:54;;;;;;;;;;;15.40;99.90;;;;;;5043902;28;1052;-54
2022/01/21 10:06:25;;;;;;;;;;;15.40;99.90;;;;;;5040457;28;1165;-53
2022/01/21 10:08:53;;;;;;;;;;;15.50;99.90;;;;;;5036962;28;1156;-54
2022/01/21 10:11:20;;;;;;;;;;;15.60;99.90;;;;;;5035749;28;931;-53
2022/01/21 10:13:48;;;;;;;;;;;15.70;99.90;;;;;;5045898;28;1012;-54
2022/01/21 10:16:14;;;;;;;;;;;15.80;99.90;;;;;;5038287;28;1747;-54
2022/01/21 10:18:57;;;;;;;;;;;15.90;99.90;;;;;;5039489;28;804;-54
2022/01/21 10:21:28;;;;;;;;;;;16.00;99.90;;;;;;5036789;28;1972;-46
2022/01/21 10:24:02;;;;;;;;;;;16.10;99.90;;;;;;5040119;28;1205;-45
2022/01/21 10:26:28;;;;;;;;;;;16.20;99.90;;;;;;5043904;28;1365;-45
2022/01/21 10:28:55;;;;;;;;;;;16.20;99.90;;;;;;5016251;28;1103;-45
2022/01/21 10:31:21;;;;;;;;;;;16.30;99.90;;;;;;5035745;28;1258;-45
2022/01/21 10:33:48;;;;;;;;;;;16.30;99.90;;;;;;5037245;28;1248;-54
2022/01/21 10:36:21;;;;;;;;;;;16.30;99.90;;;;;;5041946;28;1172;-54
2022/01/21 10:38:49;;;;;;;;;;;16.30;99.90;;;;;;5025991;28;1398;-54
2022/01/21 10:41:16;;;;;;;;;;;16.30;99.90;;;;;;5033682;28;1914;-54
2022/01/21 10:43:43;;;;;;;;;;;16.30;99.90;;;;;;5035879;28;1314;-54
2022/01/21 10:46:15;;;;;;;;;;;16.40;99.90;;;;;;5031691;28;1255;-54
2022/01/21 10:49:00;;;;;;;;;;;16.40;99.90;;;;;;5037450;28;1123;-54
2022/01/21 10:51:28;;;;;;;;;;;16.50;99.90;;;;;;5044419;28;1115;-54
2022/01/21 10:53:57;;;;;;;;;;;16.50;99.90;;;;;;5056553;28;962;-54
2022/01/21 10:56:24;;;;;;;;;;;16.50;99.90;;;;;;5037796;28;1362;-54
2022/01/21 10:58:51;;;;;;;;;;;16.50;99.90;;;;;;5038218;28;1167;-54
2022/01/21 11:01:22;;;;;;;;;;;16.60;99.90;;;;;;5037980;28;1913;-54
2022/01/21 11:04:01;;;;;;;;;;;16.60;99.90;;;;;;5045120;28;1110;-54
2022/01/21 11:07:04;;;;;;;;;;;16.60;99.90;;;;;;5035982;28;1339;-54
2022/01/21 11:09:24;;;;;;;;;;;16.70;99.90;;;;;;5038918;28;1301;-54
2022/01/21 11:12:09;;;;;;;;;;;16.70;99.90;;;;;;5039536;28;1111;-54
2022/01/21 11:14:36;;;;;;;;;;;16.70;99.90;;;;;;5042215;28;1219;-54
2022/01/21 11:17:15;;;;;;;;;;;16.70;99.90;;;;;;5026389;28;1186;-54
2022/01/21 11:20:02;;;;;;;;;;;16.80;99.90;;;;;;5039864;28;1096;-53
2022/01/21 11:22:28;;;;;;;;;;;16.80;99.90;;;;;;5030504;28;1905;-54
2022/01/21 11:24:59;;;;;;;;;;;16.80;99.90;;;;;;5042845;28;1290;-55
2022/01/21 11:27:25;;;;;;;;;;;16.80;99.90;;;;;;5022696;28;1294;-54
2022/01/21 11:29:53;;;;;;;;;;;16.80;99.90;;;;;;5035392;28;1183;-45
2022/01/21 11:32:19;;;;;;;;;;;16.90;99.90;;;;;;5037966;28;1563;-45
2022/01/21 11:34:45;;;;;;;;;;;16.90;99.90;;;;;;5035374;28;1268;-45
2022/01/21 11:37:11;;;;;;;;;;;16.90;99.90;;;;;;5038418;28;1405;-45
2022/01/21 11:39:38;;;;;;;;;;;16.90;99.90;;;;;;5042100;28;1168;-45
2022/01/21 11:42:06;;;;;;;;;;;16.90;99.90;;;;;;5034835;28;1978;-45
2022/01/21 11:44:36;;;;;;;;;;;16.90;99.90;;;;;;5036928;28;1085;-45
2022/01/21 11:48:00;;;;;;;;;;;17.00;99.90;;;;;;5041516;28;1260;-45
2022/01/21 11:49:57;;;;;;;;;;;17.00;99.90;;;;;;5025735;28;1221;-45
2022/01/21 11:52:24;;;;;;;;;;;17.00;99.90;;;;;;5037112;28;1302;-45
2022/01/21 11:54:50;;;;;;;;;;;17.00;99.90;;;;;;5035185;28;1124;-45
2022/01/21 11:57:25;;;;;;;;;;;17.10;99.90;;;;;;5055394;28;814;-45
2022/01/21 11:59:58;;;;;;;;;;;17.10;99.90;;;;;;5051970;28;958;-45
2022/01/21 12:02:26;;;;;;;;;;;17.10;99.90;;;;;;5037146;28;1905;-45
2022/01/21 12:05:00;;;;;;;;;;;17.10;99.90;;;;;;5033635;28;1043;-45
2022/01/21 12:07:44;;;;;;;;;;;17.10;99.90;;;;;;5037167;28;946;-45
2022/01/21 12:10:14;;;;;;;;;;;17.10;99.90;;;;;;5037565;28;818;-45
2022/01/21 12:12:53;;;;;;;;;;;17.10;99.90;;;;;;5036763;28;859;-45
2022/01/21 12:15:51;;;;;;;;;;;17.10;99.90;;;;;;5032009;28;1052;-45
2022/01/21 12:20:59;;;;;;;;;;;17.00;99.90;;;;;;5047108;28;1902;-45
2022/01/21 12:23:26;;;;;;;;;;;17.00;99.90;;;;;;5053387;28;1228;-45
2022/01/21 12:26:10;;;;;;;;;;;17.00;99.90;;;;;;5032937;28;928;-45
2022/01/21 12:28:37;;;;;;;;;;;17.00;99.90;;;;;;5034685;28;807;-45
2022/01/21 12:31:03;;;;;;;;;;;17.00;99.90;;;;;;5034777;28;889;-45
2022/01/21 12:33:50;;;;;;;;;;;16.90;99.90;;;;;;5039097;28;1160;-45
2022/01/21 12:36:20;;;;;;;;;;;16.90;99.90;;;;;;5036176;28;919;-45
2022/01/21 12:41:35;;;;;;;;;;;16.90;99.90;;;;;;5037031;28;1965;-44
2022/01/21 12:44:11;;;;;;;;;;;16.90;99.90;;;;;;5033780;28;1504;-44
2022/01/21 12:46:45;;;;;;;;;;;16.90;99.90;;;;;;5027591;28;1417;-52
2022/01/21 12:49:26;;;;;;;;;;;16.90;99.90;;;;;;5034067;28;1466;-52
2022/01/21 12:52:09;;;;;;;;;;;16.90;99.90;;;;;;5039336;28;1414;-53
2022/01/21 12:57:28;;;;;;;;;;;16.80;99.90;;;;;;5044380;28;897;-53
2022/01/21 12:59:56;;;;;;;;;;;16.80;99.90;;;;;;5016621;28;1323;-53
2022/01/21 13:02:26;;;;;;;;;;;16.80;99.90;;;;;;5014420;28;1983;-53
2022/01/21 13:05:02;;;;;;;;;;;16.80;99.90;;;;;;5039441;28;932;-53
2022/01/21 13:07:54;;;;;;;;;;;16.80;99.90;;;;;;5052570;28;813;-53
2022/01/21 13:10:22;;;;;;;;;;;16.80;99.90;;;;;;5030802;28;1106;-54
2022/01/21 13:15:36;;;;;;;;;;;16.90;99.90;;;;;;5053512;28;1029;-53
2022/01/21 13:18:02;;;;;;;;;;;17.00;99.90;;;;;;5035505;28;854;-53
2022/01/21 13:20:31;;;;;;;;;;;17.00;99.90;;;;;;5054581;28;770;-53
2022/01/21 13:22:57;;;;;;;;;;;17.00;99.90;;;;;;5043724;28;1898;-44
2022/01/21 13:25:25;;;;;;;;;;;17.00;99.90;;;;;;5053522;28;794;-44
2022/01/21 13:27:55;;;;;;;;;;;17.00;99.90;;;;;;5051699;28;1018;-44
2022/01/21 13:30:22;;;;;;;;;;;17.10;99.90;;;;;;5034772;28;1470;-44
2022/01/21 13:32:57;;;;;;;;;;;17.10;99.90;;;;;;5049766;28;1018;-44
2022/01/21 13:35:24;;;;;;;;;;;17.10;99.90;;;;;;5035880;28;1110;-44
2022/01/21 13:38:02;;;;;;;;;;;17.10;99.90;;;;;;5036509;28;963;-44
2022/01/21 13:40:31;;;;;;;;;;;17.10;99.90;;;;;;5035908;28;898;-44
2022/01/21 13:43:09;;;;;;;;;;;17.10;99.90;;;;;;5035677;28;1906;-44
2022/01/21 13:45:35;;;;;;;;;;;17.10;99.90;;;;;;5033646;28;1510;-44
2022/01/21 13:48:02;;;;;;;;;;;17.10;99.90;;;;;;5038269;28;1458;-44
2022/01/21 13:50:30;;;;;;;;;;;17.10;99.90;;;;;;5036807;28;1456;-44
2022/01/21 13:53:01;;;;;;;;;;;17.20;99.90;;;;;;5054295;28;1070;-45
2022/01/21 13:55:39;;;;;;;;;;;17.20;99.90;;;;;;5045921;28;1062;-44
2022/01/21 13:58:34;;;;;;;;;;;17.20;99.90;;;;;;5052048;28;891;-44
2022/01/21 14:01:03;;;;;;;;;;;17.20;99.90;;;;;;5025585;28;1339;-44
2022/01/21 14:03:30;;;;;;;;;;;17.30;99.90;;;;;;5035186;28;1965;-44
2022/01/21 14:05:59;;;;;;;;;;;17.60;99.90;;;;;;5058106;28;758;-45
2022/01/21 14:08:31;;;;;;;;;;;17.90;99.90;;;;;;5036250;28;1010;-45
2022/01/21 14:11:14;;;;;;;;;;;18.10;99.90;;;;;;5031819;28;1131;-45
2022/01/21 14:13:44;;;;;;;;;;;18.30;99.90;;;;;;5020197;28;1096;-45
2022/01/21 14:16:14;;;;;;;;;;;18.30;99.90;;;;;;5023726;28;873;-45
2022/01/21 14:18:41;;;;;;;;;;;18.40;99.90;;;;;;5010737;28;1035;-45
2022/01/21 14:21:16;;;;;;;;;;;18.50;99.90;;;;;;5025463;28;854;-45
2022/01/21 14:23:42;;;;;;;;;;;18.50;99.90;;;;;;5012884;28;1164;-45
2022/01/21 14:26:10;;;;;;;;;;;18.60;99.90;;;;;;5040329;28;987;-45
2022/01/21 14:28:44;;;;;;;;;;;18.70;99.90;;;;;;5029209;28;1021;-45
2022/01/21 14:31:28;;;;;;;;;;;18.80;99.90;;;;;;5001469;28;1013;-45
2022/01/21 14:33:54;;;;;;;;;;;18.90;99.90;;;;;;5026427;28;1212;-45
2022/01/21 14:36:21;;;;;;;;;;;19.00;99.90;;;;;;5045259;28;951;-45
2022/01/21 14:38:51;;;;;;;;;;;19.10;99.90;;;;;;5033315;28;1175;-45
2022/01/21 14:41:26;;;;;;;;;;;19.20;99.90;;;;;;5034897;28;1976;-45
2022/01/21 14:43:54;;;;;;;;;;;19.30;99.90;;;;;;5019008;28;1247;-55
2022/01/21 14:46:24;;;;;;;;;;;19.30;99.90;;;;;;5030391;28;1514;-54
2022/01/21 14:48:56;;;;;;;;;;;19.40;99.90;;;;;;5033023;28;1164;-55
2022/01/21 14:51:30;;;;;;;;;;;19.50;99.90;;;;;;5043115;28;1303;-54
2022/01/21 14:54:09;;;;;;;;;;;19.50;99.90;;;;;;5057601;28;886;-54
2022/01/21 14:56:35;;;;;;;;;;;19.60;99.90;;;;;;5053877;28;951;-54
2022/01/21 14:59:10;;;;;;;;;;;19.70;99.90;;;;;;5048455;28;1390;-54
2022/01/21 15:01:53;;;;;;;;;;;19.80;99.90;;;;;;5019730;28;1898;-54
2022/01/21 15:04:20;;;;;;;;;;;19.80;99.90;;;;;;5033579;28;1428;-54
2022/01/21 15:06:46;;;;;;;;;;;19.90;99.90;;;;;;5034756;28;1332;-54
2022/01/21 15:09:14;;;;;;;;;;;20.00;99.90;;;;;;5038602;28;1243;-54
2022/01/21 15:12:11;;;;;;;;;;;20.00;99.90;;;;;;5041150;28;1309;-54
2022/01/21 15:14:44;;;;;;;;;;;20.00;99.90;;;;;;5041211;28;1322;-54
2022/01/21 15:17:12;;;;;;;;;;;20.00;99.90;;;;;;5037983;28;1120;-54
2022/01/21 15:19:40;;;;;;;;;;;20.10;99.90;;;;;;5037993;28;1305;-55
2022/01/21 15:22:09;;;;;;;;;;;20.20;99.90;;;;;;5038170;28;1910;-55
2022/01/21 15:24:35;;;;;;;;;;;20.20;99.90;;;;;;5033807;28;1329;-54
2022/01/21 15:27:01;;;;;;;;;;;20.20;99.90;;;;;;5036645;28;989;-54
2022/01/21 15:29:29;;;;;;;;;;;20.30;99.90;;;;;;5041013;28;1128;-54
2022/01/21 15:31:55;;;;;;;;;;;20.20;99.90;;;;;;5056423;28;813;-53
2022/01/21 15:34:21;;;;;;;;;;;20.10;99.90;;;;;;5051331;28;1128;-54
2022/01/21 15:36:47;;;;;;;;;;;19.90;99.90;;;;;;5055256;28;789;-55
2022/01/21 15:39:15;;;;;;;;;;;19.70;99.90;;;;;;5038866;28;1090;-55
2022/01/21 15:41:44;;;;;;;;;;;19.70;99.90;;;;;;5036447;28;1916;-55
2022/01/21 15:44:10;;;;;;;;;;;19.60;99.90;;;;;;5035076;28;1244;-54